createdAt,value
2023-01-30T00:03:04.607Z,93710.43
2023-01-30T00:08:11.765Z,93704.82
2023-01-30T00:13:19.415Z,93699.09
2023-01-30T00:18:26.131Z,93692.05
2023-01-30T00:23:34.859Z,93692.35
2023-01-30T00:28:41.915Z,93683.73
2023-01-30T00:33:48.777Z,93677.62
2023-01-30T00:38:56.998Z,93677.62
2023-01-30T00:44:21.442Z,93673.52
2023-01-30T00:49:28.684Z,93668.05
2023-01-30T00:54:35.442Z,93678.80
2023-01-30T00:59:42.264Z,93676.63
2023-01-30T01:04:49.004Z,93668.52
2023-01-30T01:09:55.783Z,93659.37
2023-01-30T01:15:02.426Z,93662.40
2023-01-30T01:20:12.847Z,93652.36
2023-01-30T01:25:20.274Z,93658.39
2023-01-30T01:30:27.278Z,93646.77
2023-01-30T01:35:34.130Z,93644.31
2023-01-30T01:40:45.451Z,93640.23
2023-01-30T01:45:56.908Z,93642.58
2023-01-30T01:51:22.748Z,93635.77
2023-01-30T01:56:31.761Z,93625.69
2023-01-30T02:01:39.179Z,93626.39
2023-01-30T02:06:45.971Z,93614.25
2023-01-30T02:11:57.184Z,93615.13
2023-01-30T02:17:04.482Z,93615.13
2023-01-30T02:22:56.388Z,93611.58
2023-01-30T02:28:38.533Z,93597.23
2023-01-30T02:34:10.662Z,93601.94
2023-01-30T02:39:43.034Z,93599.88
2023-01-30T02:45:21.116Z,93580.70
2023-01-30T02:50:38.304Z,93580.78
2023-01-30T02:55:45.262Z,93575.17
2023-01-30T03:01:21.887Z,93572.89
2023-01-30T03:06:47.769Z,93402.70
2023-01-30T03:12:10.828Z,93574.50
2023-01-30T03:17:20.559Z,93562.16
2023-01-30T03:22:27.258Z,93567.84
2023-01-30T03:27:37.159Z,93551.02
2023-01-30T03:32:43.857Z,93552.84
2023-01-30T03:37:50.562Z,93549.19
2023-01-30T03:42:57.239Z,93555.72
2023-01-30T03:48:03.931Z,93552.52
2023-01-30T03:53:10.682Z,93551.41
2023-01-30T03:58:17.382Z,93538.95
2023-01-30T04:03:24.701Z,93528.52
2023-01-30T04:08:31.453Z,93519.12
2023-01-30T04:13:38.227Z,93519.48
2023-01-30T04:18:44.897Z,93513.81
2023-01-30T04:23:51.551Z,93504.34
2023-01-30T04:28:58.224Z,93507.16
2023-01-30T04:34:04.943Z,93486.48
2023-01-30T04:39:11.619Z,93489.19
2023-01-30T04:44:18.317Z,93476.97
2023-01-30T04:49:24.959Z,93479.38
2023-01-30T04:54:31.652Z,93482.88
2023-01-30T04:59:38.306Z,93483.84
2023-01-30T05:04:45.005Z,93481.03
2023-01-30T05:09:51.650Z,93473.38
2023-01-30T05:14:58.330Z,93467.47
2023-01-30T05:20:07.067Z,93475.66
2023-01-30T05:25:13.762Z,93466.41
2023-01-30T05:30:20.750Z,93459.70
2023-01-30T05:35:27.529Z,93451.52
2023-01-30T05:40:34.276Z,93445.42
2023-01-30T05:45:41.236Z,93451.44
2023-01-30T05:50:48.198Z,93434.93
2023-01-30T05:55:59.645Z,93436.76
2023-01-30T06:01:12.817Z,93425.95
2023-01-30T06:06:19.508Z,93417.49
2023-01-30T06:11:26.527Z,93419.77
2023-01-30T06:16:33.281Z,93424.78
2023-01-30T06:21:39.916Z,93410.91
2023-01-30T06:26:46.648Z,93410.20
2023-01-30T06:31:55.583Z,93428.28
2023-01-30T06:37:02.266Z,93411.80
2023-01-30T06:42:08.946Z,93436.19
2023-01-30T06:47:15.643Z,93441.97
2023-01-30T06:52:22.336Z,93423.35
2023-01-30T06:57:28.986Z,93430.25
2023-01-30T07:02:35.868Z,93430.00
2023-01-30T07:07:42.586Z,93431.74
2023-01-30T07:12:50.169Z,93442.73
2023-01-30T07:17:56.825Z,93429.24
2023-01-30T07:23:03.822Z,93417.03
2023-01-30T07:28:11.926Z,93416.25
2023-01-30T07:33:18.527Z,93419.83
2023-01-30T07:38:25.873Z,93416.45
2023-01-30T07:43:32.539Z,93419.03
2023-01-30T07:48:39.218Z,93421.98
2023-01-30T07:53:45.940Z,93403.11
2023-01-30T07:58:53.232Z,93386.03
2023-01-30T08:04:00.106Z,93372.90
2023-01-30T08:09:07.555Z,93387.91
2023-01-30T08:14:14.251Z,93369.46
2023-01-30T08:19:20.964Z,93367.06
2023-01-30T08:24:27.670Z,93343.73
2023-01-30T08:29:34.377Z,93350.64
2023-01-30T08:34:41.175Z,93349.56
2023-01-30T08:39:47.827Z,93333.14
2023-01-30T08:44:55.403Z,93329.45
2023-01-30T08:50:02.165Z,93332.72
2023-01-30T08:55:09.826Z,93332.27
2023-01-30T09:00:17.956Z,93336.88
2023-01-30T09:05:25.471Z,93321.76
2023-01-30T09:10:32.146Z,93312.50
2023-01-30T09:15:39.396Z,93313.02
2023-01-30T09:20:46.374Z,93302.74
2023-01-30T09:25:52.975Z,93305.31
2023-01-30T09:31:01.119Z,93307.36
2023-01-30T09:36:08.968Z,93279.63
2023-01-30T09:41:54.341Z,93274.08
2023-01-30T09:47:36.790Z,93275.85
2023-01-30T09:53:05.737Z,93264.39
2023-01-30T09:58:22.371Z,93258.73
2023-01-30T10:03:38.586Z,93246.09
2023-01-30T10:09:33.125Z,93230.99
2023-01-30T10:15:05.433Z,93230.19
2023-01-30T10:26:16.517Z,93227.94
2023-01-30T10:31:27.123Z,93221.17
2023-01-30T10:36:57.590Z,93218.14
2023-01-30T10:42:13.778Z,93209.08
2023-01-30T10:47:47.882Z,93208.19
2023-01-30T10:53:01.240Z,93216.98
2023-01-30T10:58:34.505Z,93183.48
2023-01-30T11:03:48.531Z,93157.31
2023-01-30T11:08:56.529Z,93155.14
2023-01-30T11:14:12.032Z,93154.27
2023-01-30T11:19:28.899Z,93145.69
2023-01-30T11:24:46.747Z,93146.42
2023-01-30T11:30:04.939Z,93125.63
2023-01-30T11:35:18.939Z,93113.42
2023-01-30T11:40:30.682Z,93097.03
2023-01-30T11:45:41.870Z,93103.42
2023-01-30T11:50:51.763Z,93110.27
2023-01-30T11:56:24.989Z,93098.37
2023-01-30T12:01:35.372Z,93086.05
2023-01-30T12:06:44.553Z,93067.81
2023-01-30T12:11:51.233Z,93067.25
2023-01-30T12:17:27.635Z,93049.80
2023-01-30T12:22:44.217Z,93054.84
2023-01-30T12:28:22.603Z,93051.56
2023-01-30T12:33:33.750Z,93048.67
2023-01-30T12:39:22.148Z,93033.72
2023-01-30T12:44:42.016Z,93042.70
2023-01-30T12:50:04.660Z,93038.73
2023-01-30T12:55:48.632Z,93027.81
2023-01-30T13:01:25.601Z,93022.34
2023-01-30T13:06:39.735Z,93014.51
2023-01-30T13:11:54.325Z,92996.91
2023-01-30T13:17:29.175Z,93008.47
2023-01-30T13:22:43.543Z,93001.05
2023-01-30T13:27:57.265Z,92997.44
2023-01-30T13:33:17.304Z,92997.95
2023-01-30T13:38:27.407Z,92986.41
2023-01-30T13:43:44.982Z,92979.36
2023-01-30T13:49:11.077Z,92988.75
2023-01-30T13:54:44.407Z,92977.52
2023-01-30T14:00:19.969Z,92977.81
2023-01-30T14:06:03.251Z,92977.66
2023-01-30T14:11:33.043Z,92960.92
2023-01-30T14:16:55.077Z,92959.33
2023-01-30T14:22:20.664Z,92957.66
2023-01-30T14:27:30.895Z,92957.45
2023-01-30T14:32:57.629Z,92959.08
2023-01-30T14:38:20.075Z,92949.56
2023-01-30T14:43:48.205Z,92947.62
2023-01-30T14:49:21.270Z,92957.30
2023-01-30T14:54:41.817Z,92942.69
2023-01-30T15:00:15.043Z,92961.11
2023-01-30T15:05:11.822Z,92956.83
2023-01-30T15:10:26.498Z,92961.21
2023-01-30T15:15:48.970Z,92966.08
2023-01-30T15:21:06.152Z,92953.98
2023-01-30T15:26:44.976Z,92981.50
2023-01-30T15:32:04.079Z,92966.23
2023-01-30T15:37:15.269Z,92976.61
2023-01-30T15:42:22.116Z,92964.94
2023-01-30T15:47:57.054Z,92998.39
2023-01-30T15:53:04.287Z,92981.13
2023-01-30T15:58:20.725Z,93015.30
2023-01-30T16:03:31.596Z,93010.16
2023-01-30T16:08:39.208Z,93035.23
2023-01-30T16:13:45.979Z,93052.22
2023-01-30T16:18:57.536Z,93066.05
2023-01-30T16:24:27.352Z,93080.96
2023-01-30T16:29:38.976Z,93090.67
2023-01-30T16:34:46.426Z,93069.20
2023-01-30T16:40:19.674Z,93100.83
2023-01-30T16:45:57.798Z,93084.17
2023-01-30T16:51:20.575Z,93084.48
2023-01-30T16:56:27.972Z,93080.02
2023-01-30T17:01:41.914Z,93084.79
2023-01-30T17:06:56.073Z,93129.19
2023-01-30T17:12:01.860Z,93126.36
2023-01-30T17:17:10.233Z,93124.23
2023-01-30T17:22:21.807Z,93155.14
2023-01-30T17:27:31.173Z,93151.60
2023-01-30T17:32:38.007Z,93173.63
2023-01-30T17:37:46.763Z,93165.73
2023-01-30T17:42:53.133Z,93155.91
2023-01-30T17:48:00.003Z,93185.58
2023-01-30T17:53:07.403Z,93209.58
2023-01-30T17:58:19.637Z,93236.25
2023-01-30T18:03:26.829Z,93254.95
2023-01-30T18:08:33.481Z,93270.23
2023-01-30T18:13:43.722Z,93278.94
2023-01-30T18:18:51.011Z,93310.38
2023-01-30T18:23:58.501Z,93303.35
2023-01-30T18:29:05.664Z,93316.44
2023-01-30T18:34:14.034Z,93313.60
2023-01-30T18:39:20.789Z,93310.72
2023-01-30T18:44:27.535Z,93316.30
2023-01-30T18:49:34.298Z,93334.89
2023-01-30T18:54:41.023Z,93345.31
2023-01-30T18:59:48.286Z,93355.36
2023-01-30T19:04:55.055Z,93374.70
2023-01-30T19:10:02.231Z,93395.83
2023-01-30T19:15:11.976Z,93378.42
2023-01-30T19:20:21.488Z,93360.14
2023-01-30T19:25:28.070Z,93345.19
2023-01-30T19:30:34.725Z,93350.28
2023-01-30T19:35:43.018Z,93347.45
2023-01-30T19:40:49.875Z,93351.21
2023-01-30T19:46:02.145Z,93373.17
2023-01-30T19:51:27.449Z,93365.11
2023-01-30T19:56:35.188Z,93375.48
2023-01-30T20:01:42.134Z,93387.42
2023-01-30T20:06:49.794Z,93395.45
2023-01-30T20:11:56.682Z,93402.13
2023-01-30T20:17:04.023Z,93408.83
2023-01-30T20:22:11.473Z,93402.94
2023-01-30T20:27:18.699Z,93418.31
2023-01-30T20:32:25.619Z,93413.52
2023-01-30T20:37:32.384Z,93420.84
2023-01-30T20:42:39.650Z,93420.98
2023-01-30T20:47:46.715Z,93444.62
2023-01-30T20:52:53.593Z,93435.61
2023-01-30T20:58:00.427Z,93415.25
2023-01-30T21:03:07.344Z,93402.09
2023-01-30T21:08:14.322Z,93390.80
2023-01-30T21:13:22.278Z,93399.55
2023-01-30T21:18:32.014Z,93419.29
2023-01-30T21:23:39.234Z,93403.41
2023-01-30T21:28:46.885Z,93396.63
2023-01-30T21:33:54.279Z,93391.14
2023-01-30T21:39:18.744Z,93401.06
2023-01-30T21:44:32.151Z,93418.66
2023-01-30T21:49:40.479Z,93431.35
2023-01-30T21:54:47.397Z,93429.63
2023-01-30T21:59:54.403Z,93428.09
2023-01-30T22:05:01.529Z,93426.73
2023-01-30T22:10:12.792Z,93418.70
2023-01-30T22:15:21.894Z,93404.18
2023-01-30T22:20:28.978Z,93425.31
2023-01-30T22:25:36.136Z,93430.89
2023-01-30T22:30:43.077Z,93424.20
2023-01-30T22:35:52.734Z,93436.75
2023-01-30T22:41:09.147Z,93439.94
2023-01-30T22:46:18.166Z,93450.28
2023-01-30T22:51:40.824Z,93451.80
2023-01-30T22:56:51.881Z,93476.37
2023-01-30T23:01:58.799Z,93468.06
2023-01-30T23:07:05.637Z,93483.86
2023-01-30T23:12:30.055Z,93468.31
2023-01-30T23:17:54.589Z,93465.41
2023-01-30T23:23:03.471Z,93455.12
2023-01-30T23:28:11.044Z,93463.02
2023-01-30T23:33:18.135Z,93462.50
2023-01-30T23:38:25.208Z,93470.66
2023-01-30T23:43:32.073Z,93460.57
2023-01-30T23:48:39.024Z,93446.24
2023-01-30T23:53:46.332Z,93455.70
2023-01-30T23:58:53.695Z,93445.06
